createdAt,value
2023-01-12T00:00:55.880Z,1003.79
2023-01-12T00:01:55.938Z,1003.82
2023-01-12T00:02:55.853Z,1003.69
2023-01-12T00:03:55.916Z,1003.72
2023-01-12T00:04:55.841Z,1003.78
2023-01-12T00:05:55.843Z,1003.81
2023-01-12T00:06:55.825Z,1003.58
2023-01-12T00:07:55.826Z,1003.73
2023-01-12T00:08:55.794Z,1003.62
2023-01-12T00:09:55.786Z,1003.81
2023-01-12T00:10:55.802Z,1003.63
2023-01-12T00:11:55.765Z,1003.65
2023-01-12T00:12:55.749Z,1003.74
2023-01-12T00:13:55.739Z,1003.69
2023-01-12T00:14:55.733Z,1003.72
2023-01-12T00:15:55.742Z,1003.74
2023-01-12T00:16:55.743Z,1003.72
2023-01-12T00:17:55.702Z,1003.57
2023-01-12T00:18:55.693Z,1003.59
2023-01-12T00:19:55.681Z,1003.69
2023-01-12T00:20:55.674Z,1003.83
2023-01-12T00:21:55.659Z,1003.77
2023-01-12T00:22:55.676Z,1003.81
2023-01-12T00:23:55.637Z,1003.83
2023-01-12T00:24:55.623Z,1003.78
2023-01-12T00:25:55.615Z,1003.73
2023-01-12T00:26:55.603Z,1003.77
2023-01-12T00:27:55.584Z,1003.66
2023-01-12T00:28:55.612Z,1003.73
2023-01-12T00:29:55.574Z,1003.72
2023-01-12T00:30:55.618Z,1003.73
2023-01-12T00:31:55.557Z,1003.82
2023-01-12T00:32:55.549Z,1003.67
2023-01-12T00:33:55.555Z,1003.64
2023-01-12T00:34:55.515Z,1003.66
2023-01-12T00:35:55.506Z,1003.64
2023-01-12T00:36:55.504Z,1003.50
2023-01-12T00:37:55.483Z,1003.69
2023-01-12T00:38:55.505Z,1003.66
2023-01-12T00:40:02.396Z,1003.75
2023-01-12T00:40:56.458Z,1003.66
2023-01-12T00:41:55.445Z,1003.61
2023-01-12T00:42:55.433Z,1003.67
2023-01-12T00:43:55.424Z,1003.70
2023-01-12T00:44:55.698Z,1003.78
2023-01-12T00:45:55.408Z,1003.81
2023-01-12T00:46:55.398Z,1003.71
2023-01-12T00:47:55.381Z,1003.68
2023-01-12T00:48:55.375Z,1003.73
2023-01-12T00:49:55.359Z,1003.75
2023-01-12T00:50:55.376Z,1003.87
2023-01-12T00:51:55.346Z,1003.81
2023-01-12T00:52:55.326Z,1003.82
2023-01-12T00:53:55.314Z,1003.82
2023-01-12T00:54:55.313Z,1003.80
2023-01-12T00:55:55.317Z,1003.75
2023-01-12T00:56:55.284Z,1003.70
2023-01-12T00:57:55.275Z,1003.78
2023-01-12T00:58:55.310Z,1003.75
2023-01-12T00:59:55.757Z,1003.79
2023-01-12T01:00:55.317Z,1003.74
2023-01-12T01:01:55.337Z,1003.66
2023-01-12T01:02:55.274Z,1003.60
2023-01-12T01:03:55.215Z,1003.73
2023-01-12T01:04:55.214Z,1003.70
2023-01-12T01:05:55.206Z,1003.65
2023-01-12T01:06:55.183Z,1003.58
2023-01-12T01:07:55.166Z,1003.71
2023-01-12T01:08:55.159Z,1003.64
2023-01-12T01:09:55.152Z,1003.63
2023-01-12T01:10:55.159Z,1003.63
2023-01-12T01:11:55.125Z,1003.63
2023-01-12T01:12:55.119Z,1003.56
2023-01-12T01:13:55.106Z,1003.62
2023-01-12T01:14:55.097Z,1003.70
2023-01-12T01:15:55.122Z,1003.66
2023-01-12T01:16:55.102Z,1003.67
2023-01-12T01:17:55.065Z,1003.62
2023-01-12T01:18:55.048Z,1003.70
2023-01-12T01:19:55.043Z,1003.66
2023-01-12T01:20:55.029Z,1003.68
2023-01-12T01:21:55.048Z,1003.60
2023-01-12T01:22:55.007Z,1003.64
2023-01-12T01:23:54.996Z,1003.54
2023-01-12T01:24:54.996Z,1003.59
2023-01-12T01:25:54.977Z,1003.58
2023-01-12T01:26:54.971Z,1003.59
2023-01-12T01:27:54.977Z,1003.61
2023-01-12T01:28:54.947Z,1003.62
2023-01-12T01:29:54.944Z,1003.66
2023-01-12T01:30:54.957Z,1003.51
2023-01-12T01:31:54.916Z,1003.55
2023-01-12T01:32:54.901Z,1003.59
2023-01-12T01:33:54.915Z,1003.51
2023-01-12T01:34:54.887Z,1003.50
2023-01-12T01:35:54.868Z,1003.69
2023-01-12T01:36:54.874Z,1003.55
2023-01-12T01:37:54.877Z,1003.48
2023-01-12T01:38:54.852Z,1003.59
2023-01-12T01:39:54.828Z,1003.51
2023-01-12T01:40:54.819Z,1003.54
2023-01-12T01:41:54.825Z,1003.40
2023-01-12T01:42:54.807Z,1003.50
2023-01-12T01:43:54.812Z,1003.48
2023-01-12T01:44:54.779Z,1003.57
2023-01-12T01:45:54.789Z,1003.56
2023-01-12T01:46:54.768Z,1003.79
2023-01-12T01:47:54.769Z,1003.56
2023-01-12T01:48:54.737Z,1003.62
2023-01-12T01:49:54.726Z,1003.58
2023-01-12T01:50:54.709Z,1003.62
2023-01-12T01:51:54.706Z,1003.59
2023-01-12T01:52:54.699Z,1003.51
2023-01-12T01:53:54.705Z,1003.64
2023-01-12T01:54:54.685Z,1003.51
2023-01-12T01:55:54.661Z,1003.46
2023-01-12T01:56:54.655Z,1003.51
2023-01-12T01:57:54.658Z,1003.48
2023-01-12T01:58:54.660Z,1003.53
2023-01-12T01:59:54.618Z,1003.39
2023-01-12T02:00:54.627Z,1003.36
2023-01-12T02:01:54.634Z,1003.64
2023-01-12T02:02:54.639Z,1003.41
2023-01-12T02:03:54.581Z,1003.33
2023-01-12T02:04:54.596Z,1003.33
2023-01-12T02:05:54.561Z,1003.34
2023-01-12T02:06:54.554Z,1003.31
2023-01-12T02:07:54.542Z,1003.31
2023-01-12T02:08:54.549Z,1003.25
2023-01-12T02:09:54.517Z,1003.20
2023-01-12T02:10:54.510Z,1003.18
2023-01-12T02:11:54.501Z,1003.22
2023-01-12T02:12:54.486Z,1003.16
2023-01-12T02:13:54.470Z,1003.18
2023-01-12T02:14:54.488Z,1003.10
2023-01-12T02:15:54.562Z,1003.17
2023-01-12T02:16:54.470Z,1003.00
2023-01-12T02:17:54.480Z,1003.08
2023-01-12T02:18:54.417Z,1003.06
2023-01-12T02:19:54.464Z,1003.00
2023-01-12T02:20:54.438Z,1003.11
2023-01-12T02:21:54.390Z,1003.14
2023-01-12T02:22:54.380Z,1003.06
2023-01-12T02:23:54.374Z,1002.95
2023-01-12T02:24:54.376Z,1003.06
2023-01-12T02:25:54.352Z,1002.99
2023-01-12T02:26:54.340Z,1003.01
2023-01-12T02:27:54.329Z,1002.95
2023-01-12T02:28:54.313Z,1003.01
2023-01-12T02:29:54.321Z,1002.92
2023-01-12T02:30:54.298Z,1002.89
2023-01-12T02:31:54.295Z,1002.86
2023-01-12T02:32:54.290Z,1002.87
2023-01-12T02:33:54.262Z,1002.87
2023-01-12T02:34:54.252Z,1002.86
2023-01-12T02:35:54.244Z,1002.88
2023-01-12T02:36:54.230Z,1002.86
2023-01-12T02:37:54.245Z,1002.87
2023-01-12T02:38:54.209Z,1002.74
2023-01-12T02:39:54.222Z,1002.83
2023-01-12T02:40:54.193Z,1002.83
2023-01-12T02:41:54.201Z,1002.83
2023-01-12T02:42:54.164Z,1002.79
2023-01-12T02:43:54.152Z,1002.74
2023-01-12T02:44:54.144Z,1002.73
2023-01-12T02:45:54.140Z,1002.70
2023-01-12T02:46:54.146Z,1002.63
2023-01-12T02:47:54.120Z,1002.68
2023-01-12T02:48:54.102Z,1002.64
2023-01-12T02:49:54.095Z,1002.76
2023-01-12T02:50:54.084Z,1002.77
2023-01-12T02:51:54.094Z,1002.69
2023-01-12T02:52:54.062Z,1002.76
2023-01-12T02:53:54.053Z,1002.63
2023-01-12T02:54:54.043Z,1002.67
2023-01-12T02:55:54.035Z,1002.65
2023-01-12T02:56:54.041Z,1002.59
2023-01-12T02:57:54.014Z,1002.58
2023-01-12T02:58:53.995Z,1002.58
2023-01-12T02:59:53.987Z,1002.57
2023-01-12T03:00:54.056Z,1002.58
2023-01-12T03:01:53.990Z,1002.59
2023-01-12T03:02:53.971Z,1002.52
2023-01-12T03:03:53.951Z,1002.54
2023-01-12T03:04:53.952Z,1002.50
2023-01-12T03:05:53.929Z,1002.41
2023-01-12T03:06:53.914Z,1002.47
2023-01-12T03:07:53.911Z,1002.45
2023-01-12T03:08:53.894Z,1002.37
2023-01-12T03:09:53.904Z,1002.47
2023-01-12T03:10:53.867Z,1002.47
2023-01-12T03:11:53.867Z,1002.31
2023-01-12T03:12:53.845Z,1002.41
2023-01-12T03:13:53.843Z,1002.31
2023-01-12T03:14:53.836Z,1002.34
2023-01-12T03:15:53.853Z,1002.27
2023-01-12T03:16:53.805Z,1002.25
2023-01-12T03:17:53.795Z,1002.24
2023-01-12T03:18:53.797Z,1002.14
2023-01-12T03:19:53.778Z,1002.20
2023-01-12T03:20:53.789Z,1002.16
2023-01-12T03:21:53.757Z,1002.18
2023-01-12T03:22:53.743Z,1002.17
2023-01-12T03:23:53.735Z,1002.23
2023-01-12T03:24:53.724Z,1002.31
2023-01-12T03:25:53.745Z,1002.16
2023-01-12T03:26:53.706Z,1002.19
2023-01-12T03:27:53.694Z,1002.15
2023-01-12T03:28:53.692Z,1002.23
2023-01-12T03:29:53.666Z,1002.14
2023-01-12T03:30:53.676Z,1002.18
2023-01-12T03:31:53.656Z,1002.25
2023-01-12T03:32:53.652Z,1002.10
2023-01-12T03:33:53.641Z,1002.20
2023-01-12T03:34:53.635Z,1002.24
2023-01-12T03:35:53.635Z,1002.18
2023-01-12T03:36:53.612Z,1002.22
2023-01-12T03:37:53.595Z,1002.15
2023-01-12T03:38:53.576Z,1002.05
2023-01-12T03:39:53.590Z,1002.06
2023-01-12T03:40:53.577Z,1002.07
2023-01-12T03:41:53.539Z,1002.02
2023-01-12T03:42:53.526Z,1001.99
2023-01-12T03:43:53.522Z,1001.98
2023-01-12T03:44:53.509Z,1002.03
2023-01-12T03:45:53.527Z,1001.96
2023-01-12T03:46:53.546Z,1001.92
2023-01-12T03:47:53.477Z,1001.97
2023-01-12T03:48:53.468Z,1001.89
2023-01-12T03:49:53.469Z,1001.97
2023-01-12T03:50:53.464Z,1001.87
2023-01-12T03:51:53.437Z,1001.94
2023-01-12T03:52:53.426Z,1001.85
2023-01-12T03:53:53.440Z,1001.83
2023-01-12T03:54:53.407Z,1001.78
2023-01-12T03:55:53.407Z,1001.92
2023-01-12T03:56:53.378Z,1001.86
2023-01-12T03:57:53.376Z,1001.75
2023-01-12T03:58:53.394Z,1001.76
2023-01-12T03:59:53.357Z,1001.76
2023-01-12T04:00:53.483Z,1001.70
2023-01-12T04:01:53.435Z,1001.78
2023-01-12T04:02:53.372Z,1001.75
2023-01-12T04:03:53.307Z,1001.70
2023-01-12T04:04:53.321Z,1001.67
2023-01-12T04:05:53.306Z,1001.70
2023-01-12T04:06:53.278Z,1001.58
2023-01-12T04:07:53.273Z,1001.70
2023-01-12T04:08:53.254Z,1001.69
2023-01-12T04:09:53.278Z,1001.63
2023-01-12T04:10:53.229Z,1001.74
2023-01-12T04:11:53.229Z,1001.57
2023-01-12T04:12:53.209Z,1001.57
2023-01-12T04:13:53.199Z,1001.58
2023-01-12T04:14:53.196Z,1001.57
2023-01-12T04:15:53.208Z,1001.56
2023-01-12T04:16:53.176Z,1001.62
2023-01-12T04:17:53.159Z,1001.49
2023-01-12T04:18:53.147Z,1001.61
2023-01-12T04:19:53.148Z,1001.64
2023-01-12T04:20:53.150Z,1001.65
2023-01-12T04:21:53.114Z,1001.64
2023-01-12T04:22:53.098Z,1001.59
2023-01-12T04:23:53.094Z,1001.63
2023-01-12T04:24:53.080Z,1001.54
2023-01-12T04:25:53.099Z,1001.43
2023-01-12T04:26:53.080Z,1001.55
2023-01-12T04:27:53.051Z,1001.49
2023-01-12T04:28:53.040Z,1001.48
2023-01-12T04:29:53.033Z,1001.34
2023-01-12T04:30:53.019Z,1001.27
2023-01-12T04:31:53.096Z,1001.36
2023-01-12T04:32:53.006Z,1001.39
2023-01-12T04:33:52.981Z,1001.30
2023-01-12T04:34:52.978Z,1001.31
2023-01-12T04:35:52.961Z,1001.42
2023-01-12T04:36:52.959Z,1001.28
2023-01-12T04:37:52.970Z,1001.20
2023-01-12T04:38:52.937Z,1001.26
2023-01-12T04:39:52.930Z,1001.16
2023-01-12T04:40:52.924Z,1001.45
2023-01-12T04:41:52.910Z,1001.16
2023-01-12T04:42:52.890Z,1001.14
2023-01-12T04:43:52.910Z,1001.17
2023-01-12T04:44:52.868Z,1001.11
2023-01-12T04:45:52.896Z,1001.18
2023-01-12T04:46:52.874Z,1001.15
2023-01-12T04:47:52.842Z,1001.12
2023-01-12T04:48:52.821Z,1001.03
2023-01-12T04:49:52.849Z,1001.03
2023-01-12T04:50:52.803Z,1001.01
2023-01-12T04:51:52.805Z,1001.02
2023-01-12T04:52:52.789Z,1000.98
2023-01-12T04:53:52.791Z,1001.02
2023-01-12T04:54:52.771Z,1000.98
2023-01-12T04:55:52.753Z,1000.98
2023-01-12T04:56:52.761Z,1000.93
2023-01-12T04:57:52.738Z,1000.87
2023-01-12T04:58:52.722Z,1000.84
2023-01-12T04:59:52.720Z,1000.72
2023-01-12T05:00:52.751Z,1000.80
2023-01-12T05:01:52.776Z,1000.80
2023-01-12T05:02:52.681Z,1000.70
2023-01-12T05:03:52.700Z,1000.60
2023-01-12T05:04:52.665Z,1000.61
2023-01-12T05:05:52.649Z,1000.57
2023-01-12T05:06:52.681Z,1000.63
2023-01-12T05:07:52.622Z,1000.56
2023-01-12T05:08:52.621Z,1000.57
2023-01-12T05:09:52.603Z,1000.59
2023-01-12T05:10:52.605Z,1000.54
2023-01-12T05:11:52.584Z,1000.55
2023-01-12T05:12:52.603Z,1000.45
2023-01-12T05:13:52.563Z,1000.47
2023-01-12T05:14:52.573Z,1000.47
2023-01-12T05:15:52.546Z,1000.51
2023-01-12T05:16:52.554Z,1000.49
2023-01-12T05:17:52.561Z,1000.38
2023-01-12T05:18:52.511Z,1000.32
2023-01-12T05:19:52.509Z,1000.44
2023-01-12T05:20:52.495Z,1000.45
2023-01-12T05:21:52.488Z,1000.53
2023-01-12T05:22:52.492Z,1000.48
2023-01-12T05:23:52.490Z,1000.49
2023-01-12T05:24:52.449Z,1000.48
2023-01-12T05:25:52.463Z,1000.32
2023-01-12T05:26:52.437Z,1000.56
2023-01-12T05:27:52.413Z,1000.13
2023-01-12T05:28:52.406Z,1000.33
2023-01-12T05:29:52.393Z,1000.27
2023-01-12T05:30:52.413Z,1000.39
2023-01-12T05:31:52.419Z,1000.29
2023-01-12T05:32:52.361Z,1000.30
2023-01-12T05:33:52.349Z,1000.48
2023-01-12T05:34:52.352Z,1000.32
2023-01-12T05:35:52.335Z,1000.33
2023-01-12T05:36:52.325Z,1000.28
2023-01-12T05:37:52.332Z,1000.12
2023-01-12T05:38:52.296Z,1000.08
2023-01-12T05:39:52.339Z,999.97
2023-01-12T05:40:52.292Z,1000.07
2023-01-12T05:41:52.263Z,999.95
2023-01-12T05:42:52.411Z,999.97
2023-01-12T05:43:52.370Z,999.97
2023-01-12T05:44:52.242Z,999.90
2023-01-12T05:45:52.253Z,999.94
2023-01-12T05:46:52.215Z,1000.04
2023-01-12T05:47:52.221Z,999.90
2023-01-12T05:48:52.226Z,999.85
2023-01-12T05:49:52.186Z,999.80
2023-01-12T05:50:52.176Z,999.77
2023-01-12T05:51:52.170Z,999.79
2023-01-12T05:52:52.155Z,999.75
2023-01-12T05:53:52.160Z,999.77
2023-01-12T05:54:52.134Z,999.59
2023-01-12T05:55:52.160Z,999.65
2023-01-12T05:56:52.111Z,999.62
2023-01-12T05:57:52.105Z,999.68
2023-01-12T05:58:52.106Z,999.59
2023-01-12T05:59:52.076Z,999.78
2023-01-12T06:00:52.091Z,999.58
2023-01-12T06:01:52.108Z,999.58
2023-01-12T06:02:52.048Z,999.66
2023-01-12T06:03:52.057Z,999.59
2023-01-12T06:04:52.075Z,999.52
2023-01-12T06:05:52.015Z,999.53
2023-01-12T06:06:52.014Z,999.39
2023-01-12T06:07:52.000Z,999.56
2023-01-12T06:08:52.615Z,999.53
2023-01-12T06:09:51.995Z,999.47
2023-01-12T06:10:51.965Z,999.42
2023-01-12T06:11:51.948Z,999.40
2023-01-12T06:12:51.942Z,999.36
2023-01-12T06:13:51.928Z,999.27
2023-01-12T06:14:51.924Z,999.27
2023-01-12T06:15:51.952Z,999.27
2023-01-12T06:16:51.903Z,999.18
2023-01-12T06:17:51.885Z,999.18
2023-01-12T06:18:51.886Z,999.14
2023-01-12T06:19:51.886Z,999.20
2023-01-12T06:20:51.858Z,999.04
2023-01-12T06:21:51.846Z,998.95
2023-01-12T06:22:51.837Z,999.06
2023-01-12T06:23:51.828Z,999.10
2023-01-12T06:24:51.817Z,998.99
2023-01-12T06:25:51.832Z,999.09
2023-01-12T06:26:51.796Z,999.25
2023-01-12T06:27:51.809Z,999.01
2023-01-12T06:28:51.780Z,999.07
2023-01-12T06:29:51.763Z,998.98
2023-01-12T06:30:51.801Z,998.97
2023-01-12T06:31:51.766Z,998.98
2023-01-12T06:32:51.733Z,998.94
2023-01-12T06:33:51.714Z,998.80
2023-01-12T06:34:51.710Z,998.61
2023-01-12T06:35:51.696Z,998.84
2023-01-12T06:36:51.717Z,998.88
2023-01-12T06:37:51.670Z,998.95
2023-01-12T06:38:51.665Z,998.78
2023-01-12T06:39:51.651Z,998.88
2023-01-12T06:40:51.639Z,998.72
2023-01-12T06:41:51.629Z,998.65
2023-01-12T06:42:51.788Z,998.76
2023-01-12T06:43:51.630Z,998.64
2023-01-12T06:44:51.612Z,998.63
2023-01-12T06:45:51.580Z,998.71
2023-01-12T06:46:59.373Z,998.63
2023-01-12T06:47:51.582Z,998.71
2023-01-12T06:48:51.569Z,998.59
2023-01-12T06:49:51.548Z,998.68
2023-01-12T06:50:51.536Z,998.69
2023-01-12T06:51:51.690Z,998.72
2023-01-12T06:52:51.538Z,998.69
2023-01-12T06:53:51.502Z,998.76
2023-01-12T06:54:51.496Z,998.74
2023-01-12T06:55:51.483Z,998.76
2023-01-12T06:56:51.478Z,998.84
2023-01-12T06:57:51.477Z,998.79
2023-01-12T06:58:51.450Z,998.65
2023-01-12T06:59:51.447Z,998.66
2023-01-12T07:00:51.518Z,998.77
2023-01-12T07:01:51.603Z,998.66
2023-01-12T07:02:51.426Z,998.55
2023-01-12T07:03:51.408Z,998.59
2023-01-12T07:04:51.400Z,998.55
2023-01-12T07:05:51.377Z,998.44
2023-01-12T07:06:51.390Z,998.52
2023-01-12T07:07:51.350Z,998.55
2023-01-12T07:08:51.347Z,998.57
2023-01-12T07:09:51.335Z,998.50
2023-01-12T07:10:51.345Z,998.50
2023-01-12T07:11:51.340Z,998.49
2023-01-12T07:12:51.314Z,998.59
2023-01-12T07:13:51.298Z,998.61
2023-01-12T07:14:51.277Z,998.59
2023-01-12T07:15:51.310Z,998.47
2023-01-12T07:16:51.260Z,998.64
2023-01-12T07:17:51.273Z,998.52
2023-01-12T07:18:51.287Z,998.44
2023-01-12T07:19:51.232Z,998.53
2023-01-12T07:20:51.232Z,998.50
2023-01-12T07:21:51.211Z,998.56
2023-01-12T07:22:51.227Z,998.48
2023-01-12T07:23:51.191Z,998.63
2023-01-12T07:24:51.200Z,998.56
2023-01-12T07:25:51.181Z,998.60
2023-01-12T07:26:51.167Z,998.51
2023-01-12T07:27:51.143Z,998.52
2023-01-12T07:28:51.159Z,998.46
2023-01-12T07:29:51.121Z,998.60
2023-01-12T07:30:51.164Z,998.61
2023-01-12T07:31:51.128Z,998.59
2023-01-12T07:32:51.103Z,998.63
2023-01-12T07:33:51.081Z,998.66
2023-01-12T07:34:51.079Z,998.62
2023-01-12T07:35:51.067Z,998.51
2023-01-12T07:36:51.055Z,998.61
2023-01-12T07:37:51.062Z,998.57
2023-01-12T07:38:51.035Z,998.49
2023-01-12T07:39:51.036Z,998.54
2023-01-12T07:40:51.007Z,998.69
2023-01-12T07:41:51.000Z,998.64
2023-01-12T07:42:50.991Z,998.63
2023-01-12T07:43:51.000Z,998.61
2023-01-12T07:44:50.970Z,998.59
2023-01-12T07:45:50.961Z,998.69
2023-01-12T07:46:50.950Z,998.67
2023-01-12T07:47:50.930Z,998.56
2023-01-12T07:48:50.956Z,998.61
2023-01-12T07:49:50.929Z,998.38
2023-01-12T07:50:50.900Z,998.45
2023-01-12T07:51:50.927Z,998.61
2023-01-12T07:52:50.882Z,998.76
2023-01-12T07:53:50.872Z,998.80
2023-01-12T07:54:50.940Z,998.82
2023-01-12T07:55:50.850Z,998.84
2023-01-12T07:56:50.869Z,998.87
2023-01-12T07:57:50.833Z,998.67
2023-01-12T07:58:50.815Z,998.65
2023-01-12T07:59:50.830Z,998.55
2023-01-12T08:00:50.873Z,998.40
2023-01-12T08:01:53.100Z,998.54
2023-01-12T08:02:50.780Z,998.56
2023-01-12T08:03:50.772Z,998.51
2023-01-12T08:04:50.780Z,998.70
2023-01-12T08:05:50.787Z,998.61
2023-01-12T08:06:50.749Z,998.78
2023-01-12T08:07:50.724Z,998.82
2023-01-12T08:08:50.722Z,998.77
2023-01-12T08:09:50.723Z,998.74
2023-01-12T08:10:50.742Z,998.68
2023-01-12T08:11:50.680Z,998.63
2023-01-12T08:12:50.670Z,998.52
2023-01-12T08:13:50.653Z,998.51
2023-01-12T08:14:50.673Z,998.96
2023-01-12T08:15:50.711Z,998.38
2023-01-12T08:16:50.634Z,998.56
2023-01-12T08:17:50.620Z,998.58
2023-01-12T08:18:50.601Z,998.57
2023-01-12T08:19:50.618Z,998.66
2023-01-12T08:20:50.581Z,998.74
2023-01-12T08:21:50.573Z,998.65
2023-01-12T08:22:50.565Z,998.72
2023-01-12T08:23:50.556Z,998.80
2023-01-12T08:24:50.562Z,998.76
2023-01-12T08:25:50.533Z,998.74
2023-01-12T08:26:50.549Z,998.73
2023-01-12T08:27:50.503Z,998.74
2023-01-12T08:28:50.500Z,998.65
2023-01-12T08:29:50.516Z,998.72
2023-01-12T08:30:50.471Z,998.73
2023-01-12T08:31:50.462Z,998.85
2023-01-12T08:32:50.455Z,998.82
2023-01-12T08:33:50.443Z,998.65
2023-01-12T08:34:50.463Z,998.74
2023-01-12T08:35:50.515Z,998.74
2023-01-12T08:36:50.413Z,998.89
2023-01-12T08:37:50.398Z,998.68
2023-01-12T08:38:50.397Z,998.75
2023-01-12T08:39:50.422Z,998.63
2023-01-12T08:40:50.372Z,998.64
2023-01-12T08:41:50.422Z,998.67
2023-01-12T08:42:50.347Z,998.68
2023-01-12T08:43:50.337Z,998.66
2023-01-12T08:44:50.361Z,998.61
2023-01-12T08:45:50.347Z,998.60
2023-01-12T08:46:50.387Z,998.59
2023-01-12T08:47:50.287Z,998.65
2023-01-12T08:48:50.347Z,998.73
2023-01-12T08:49:50.284Z,998.69
2023-01-12T08:50:50.258Z,998.76
2023-01-12T08:51:50.247Z,998.79
2023-01-12T08:52:50.262Z,998.78
2023-01-12T08:53:50.253Z,998.76
2023-01-12T08:54:50.243Z,998.62
2023-01-12T08:55:50.211Z,998.40
2023-01-12T08:56:50.183Z,998.62
2023-01-12T08:57:50.174Z,998.66
2023-01-12T08:58:50.218Z,998.66
2023-01-12T08:59:50.215Z,998.84
2023-01-12T09:00:50.298Z,998.71
2023-01-12T09:01:50.253Z,998.77
2023-01-12T09:02:50.225Z,998.78
2023-01-12T09:03:50.127Z,998.71
2023-01-12T09:04:50.124Z,998.57
2023-01-12T09:05:50.220Z,998.54
2023-01-12T09:06:50.154Z,998.65
2023-01-12T09:07:50.096Z,998.68
2023-01-12T09:08:50.067Z,998.68
2023-01-12T09:09:50.105Z,998.75
2023-01-12T09:10:50.035Z,998.70
2023-01-12T09:11:50.058Z,999.02
2023-01-12T09:12:50.036Z,998.76
2023-01-12T09:13:50.025Z,998.71
2023-01-12T09:14:50.003Z,998.85
2023-01-12T09:16:05.962Z,998.72
2023-01-12T09:16:51.219Z,998.81
2023-01-12T09:17:49.991Z,998.75
2023-01-12T09:18:50.004Z,998.67
2023-01-12T09:19:49.953Z,998.71
2023-01-12T09:20:49.987Z,998.85
2023-01-12T09:21:49.927Z,998.72
2023-01-12T09:22:49.931Z,998.89
2023-01-12T09:23:49.897Z,999.07
2023-01-12T09:24:49.952Z,998.87
2023-01-12T09:25:49.900Z,998.91
2023-01-12T09:26:49.858Z,998.94
2023-01-12T09:27:49.885Z,998.92
2023-01-12T09:28:49.838Z,999.02
2023-01-12T09:29:49.833Z,998.91
2023-01-12T09:30:49.816Z,998.84
2023-01-12T09:31:50.003Z,999.00
2023-01-12T09:32:49.860Z,998.89
2023-01-12T09:33:49.821Z,999.04
2023-01-12T09:34:49.848Z,999.09
2023-01-12T09:35:49.796Z,999.06
2023-01-12T09:36:49.762Z,999.12
2023-01-12T09:37:49.741Z,999.00
2023-01-12T09:38:49.752Z,999.23
2023-01-12T09:39:49.745Z,999.12
2023-01-12T09:40:49.699Z,999.13
2023-01-12T09:41:49.699Z,999.05
2023-01-12T09:42:49.706Z,999.14
2023-01-12T09:43:49.680Z,999.18
2023-01-12T09:44:49.721Z,999.16
2023-01-12T09:45:49.692Z,999.18
2023-01-12T09:46:49.669Z,999.20
2023-01-12T09:47:50.415Z,999.21
2023-01-12T09:48:49.690Z,999.13
2023-01-12T09:49:53.635Z,999.15
2023-01-12T09:50:49.620Z,999.27
2023-01-12T09:51:49.592Z,999.18
2023-01-12T09:52:49.603Z,999.33
2023-01-12T09:53:49.631Z,999.32
2023-01-12T09:54:49.553Z,999.04
2023-01-12T09:55:49.539Z,999.18
2023-01-12T09:56:49.531Z,999.28
2023-01-12T09:57:49.578Z,999.26
2023-01-12T09:58:49.508Z,999.22
2023-01-12T09:59:49.493Z,999.33
2023-01-12T10:00:49.490Z,999.13
2023-01-12T10:01:49.620Z,999.13
2023-01-12T10:02:49.632Z,999.10
2023-01-12T10:03:49.463Z,999.17
2023-01-12T10:04:49.450Z,999.18
2023-01-12T10:05:49.466Z,999.36
2023-01-12T10:06:49.421Z,999.40
2023-01-12T10:07:49.403Z,999.34
2023-01-12T10:08:49.425Z,999.38
2023-01-12T10:09:49.393Z,999.33
2023-01-12T10:10:49.402Z,999.23
2023-01-12T10:11:49.402Z,999.21
2023-01-12T10:12:49.368Z,999.37
2023-01-12T10:13:49.347Z,999.34
2023-01-12T10:14:49.360Z,999.40
2023-01-12T10:15:49.472Z,999.46
2023-01-12T10:16:49.320Z,999.32
2023-01-12T10:17:51.600Z,999.34
2023-01-12T10:18:49.290Z,999.34
2023-01-12T10:19:50.853Z,999.37
2023-01-12T10:20:49.259Z,999.46
2023-01-12T10:21:49.273Z,999.36
2023-01-12T10:22:49.242Z,999.48
2023-01-12T10:23:49.234Z,999.52
2023-01-12T10:24:49.214Z,999.44
2023-01-12T10:25:49.214Z,999.39
2023-01-12T10:26:49.214Z,999.48
2023-01-12T10:27:49.191Z,999.42
2023-01-12T10:28:49.180Z,999.41
2023-01-12T10:29:49.185Z,999.37
2023-01-12T10:30:49.154Z,999.49
2023-01-12T10:31:49.258Z,999.48
2023-01-12T10:32:49.122Z,999.49
2023-01-12T10:33:49.116Z,999.40
2023-01-12T10:34:49.109Z,999.51
2023-01-12T10:35:49.095Z,999.50
2023-01-12T10:36:49.105Z,999.36
2023-01-12T10:37:49.095Z,999.40
2023-01-12T10:38:49.105Z,999.38
2023-01-12T10:39:49.044Z,999.43
2023-01-12T10:40:49.037Z,999.47
2023-01-12T10:41:49.046Z,999.51
2023-01-12T10:42:49.016Z,999.48
2023-01-12T10:43:49.005Z,999.39
2023-01-12T10:44:48.987Z,999.43
2023-01-12T10:45:49.005Z,999.34
2023-01-12T10:46:48.975Z,999.36
2023-01-12T10:47:48.991Z,999.45
2023-01-12T10:48:48.959Z,999.39
2023-01-12T10:49:48.935Z,999.25
2023-01-12T10:50:48.928Z,999.39
2023-01-12T10:51:48.912Z,999.37
2023-01-12T10:52:48.931Z,999.48
2023-01-12T10:53:48.886Z,999.42
2023-01-12T10:54:48.902Z,999.40
2023-01-12T10:55:48.868Z,999.43
2023-01-12T10:56:48.858Z,999.40
2023-01-12T10:57:48.875Z,999.39
2023-01-12T10:58:50.144Z,999.42
2023-01-12T10:59:48.834Z,999.30
2023-01-12T11:00:48.914Z,999.39
2023-01-12T11:01:48.931Z,999.33
2023-01-12T11:02:48.830Z,999.40
2023-01-12T11:03:48.803Z,999.31
2023-01-12T11:04:48.765Z,999.30
2023-01-12T11:05:48.756Z,999.28
2023-01-12T11:06:48.746Z,999.40
2023-01-12T11:07:48.743Z,999.38
2023-01-12T11:08:48.748Z,999.43
2023-01-12T11:09:48.717Z,999.33
2023-01-12T11:10:48.727Z,999.43
2023-01-12T11:11:48.694Z,999.39
2023-01-12T11:12:48.678Z,999.32
2023-01-12T11:13:48.697Z,999.32
2023-01-12T11:14:48.688Z,999.40
2023-01-12T11:15:48.648Z,999.41
2023-01-12T11:16:48.673Z,999.33
2023-01-12T11:17:50.028Z,999.45
2023-01-12T11:18:48.612Z,999.38
2023-01-12T11:19:48.618Z,999.48
2023-01-12T11:20:48.628Z,999.43
2023-01-12T11:21:48.705Z,999.42
2023-01-12T11:22:48.566Z,999.27
2023-01-12T11:23:48.584Z,999.29
2023-01-12T11:24:48.568Z,999.44
2023-01-12T11:25:48.547Z,999.35
2023-01-12T11:26:48.522Z,999.48
2023-01-12T11:27:48.516Z,999.36
2023-01-12T11:28:48.500Z,999.39
2023-01-12T11:29:48.488Z,999.26
2023-01-12T11:30:48.669Z,999.27
2023-01-12T11:31:48.473Z,999.42
2023-01-12T11:32:48.466Z,999.35
2023-01-12T11:33:48.451Z,999.33
2023-01-12T11:34:48.433Z,999.35
2023-01-12T11:35:48.429Z,999.37
2023-01-12T11:36:48.430Z,999.35
2023-01-12T11:37:48.432Z,999.40
2023-01-12T11:38:48.390Z,999.39
2023-01-12T11:39:48.378Z,999.32
2023-01-12T11:40:48.372Z,999.20
2023-01-12T11:41:48.351Z,999.12
2023-01-12T11:42:48.341Z,999.46
2023-01-12T11:43:48.360Z,999.28
2023-01-12T11:44:48.322Z,999.39
2023-01-12T11:45:48.337Z,999.32
2023-01-12T11:46:48.311Z,999.52
2023-01-12T11:47:48.289Z,999.52
2023-01-12T11:48:48.296Z,999.20
2023-01-12T11:49:48.262Z,999.32
2023-01-12T11:50:48.278Z,999.43
2023-01-12T11:51:48.271Z,999.33
2023-01-12T11:52:48.230Z,999.31
2023-01-12T11:53:48.243Z,999.42
2023-01-12T11:54:48.218Z,999.36
2023-01-12T11:55:48.220Z,999.28
2023-01-12T11:56:48.223Z,999.34
2023-01-12T11:57:48.185Z,999.39
2023-01-12T11:58:48.179Z,999.31
2023-01-12T11:59:48.154Z,999.33
2023-01-12T12:00:48.170Z,999.29
2023-01-12T12:01:48.133Z,999.29
2023-01-12T12:02:48.198Z,999.35
2023-01-12T12:03:48.181Z,999.35
2023-01-12T12:04:48.094Z,999.43
2023-01-12T12:05:48.095Z,999.29
2023-01-12T12:06:48.073Z,999.33
2023-01-12T12:07:48.092Z,999.32
2023-01-12T12:08:48.055Z,999.23
2023-01-12T12:09:48.050Z,999.25
2023-01-12T12:10:48.041Z,999.29
2023-01-12T12:11:48.024Z,999.29
2023-01-12T12:12:48.018Z,999.42
2023-01-12T12:13:48.029Z,999.37
2023-01-12T12:14:47.984Z,999.29
2023-01-12T12:15:48.019Z,999.28
2023-01-12T12:16:47.961Z,999.25
2023-01-12T12:17:47.956Z,999.35